sensor_id;sensor_type;location;lat;lon;timestamp;P1;durP1;ratioP1;P2;durP2;ratioP2
23768;SDS011;12064;50.890;5.424;2023-04-01T00:01:25;2.75;;;0.90;;
23768;SDS011;12064;50.890;5.424;2023-04-01T00:10:16;2.58;;;0.68;;
23768;SDS011;12064;50.890;5.424;2023-04-01T00:19:07;1.75;;;0.70;;
23768;SDS011;12064;50.890;5.424;2023-04-01T00:27:58;2.65;;;0.77;;
23768;SDS011;12064;50.890;5.424;2023-04-01T00:36:49;1.57;;;0.70;;
23768;SDS011;12064;50.890;5.424;2023-04-01T00:45:43;1.63;;;0.70;;
23768;SDS011;12064;50.890;5.424;2023-04-01T00:54:34;2.45;;;0.80;;
23768;SDS011;12064;50.890;5.424;2023-04-01T01:03:27;2.33;;;0.70;;
23768;SDS011;12064;50.890;5.424;2023-04-01T01:30:44;0.70;;;0.50;;
23768;SDS011;12064;50.890;5.424;2023-04-01T01:39:54;3.08;;;0.60;;
23768;SDS011;12064;50.890;5.424;2023-04-01T01:48:46;1.35;;;0.60;;
23768;SDS011;12064;50.890;5.424;2023-04-01T01:57:40;2.97;;;0.70;;
23768;SDS011;12064;50.890;5.424;2023-04-01T02:06:34;1.75;;;0.70;;
23768;SDS011;12064;50.890;5.424;2023-04-01T02:15:29;2.53;;;0.80;;
23768;SDS011;12064;50.890;5.424;2023-04-01T02:24:25;1.30;;;0.70;;
23768;SDS011;12064;50.890;5.424;2023-04-01T02:33:18;3.08;;;0.80;;
23768;SDS011;12064;50.890;5.424;2023-04-01T02:42:10;2.45;;;0.80;;
23768;SDS011;12064;50.890;5.424;2023-04-01T02:51:01;1.10;;;0.60;;
23768;SDS011;12064;50.890;5.424;2023-04-01T02:59:51;1.00;;;0.57;;
23768;SDS011;12064;50.890;5.424;2023-04-01T03:08:42;2.40;;;0.55;;
23768;SDS011;12064;50.890;5.424;2023-04-01T03:17:33;1.63;;;0.68;;
23768;SDS011;12064;50.890;5.424;2023-04-01T03:26:24;4.20;;;0.70;;
23768;SDS011;12064;50.890;5.424;2023-04-01T03:35:16;3.45;;;0.85;;
23768;SDS011;12064;50.890;5.424;2023-04-01T03:44:08;1.17;;;0.70;;
23768;SDS011;12064;50.890;5.424;2023-04-01T03:52:58;1.58;;;0.80;;
23768;SDS011;12064;50.890;5.424;2023-04-01T04:01:49;1.27;;;0.52;;
23768;SDS011;12064;50.890;5.424;2023-04-01T04:10:43;1.35;;;0.65;;
23768;SDS011;12064;50.890;5.424;2023-04-01T04:19:34;1.63;;;0.70;;
23768;SDS011;12064;50.890;5.424;2023-04-01T04:28:25;1.08;;;0.50;;
23768;SDS011;12064;50.890;5.424;2023-04-01T04:37:17;1.60;;;0.70;;
23768;SDS011;12064;50.890;5.424;2023-04-01T04:46:10;1.55;;;0.50;;
23768;SDS011;12064;50.890;5.424;2023-04-01T04:55:01;1.23;;;0.40;;
23768;SDS011;12064;50.890;5.424;2023-04-01T05:03:52;2.92;;;0.65;;
23768;SDS011;12064;50.890;5.424;2023-04-01T05:12:42;1.53;;;0.60;;
23768;SDS011;12064;50.890;5.424;2023-04-01T05:21:33;1.45;;;0.60;;
23768;SDS011;12064;50.890;5.424;2023-04-01T05:30:24;1.63;;;0.60;;
23768;SDS011;12064;50.890;5.424;2023-04-01T05:39:14;8.30;;;0.70;;
23768;SDS011;12064;50.890;5.424;2023-04-01T05:48:05;1.38;;;0.80;;
23768;SDS011;12064;50.890;5.424;2023-04-01T05:56:56;3.13;;;0.70;;
23768;SDS011;12064;50.890;5.424;2023-04-01T06:05:46;1.10;;;0.50;;
23768;SDS011;12064;50.890;5.424;2023-04-01T06:14:41;1.65;;;0.60;;
23768;SDS011;12064;50.890;5.424;2023-04-01T07:00:19;2.00;;;0.70;;
23768;SDS011;12064;50.890;5.424;2023-04-01T07:09:27;4.65;;;0.75;;
23768;SDS011;12064;50.890;5.424;2023-04-01T07:18:58;0.50;;;0.50;;
23768;SDS011;12064;50.890;5.424;2023-04-01T07:27:44;4.05;;;0.90;;
23768;SDS011;12064;50.890;5.424;2023-04-01T07:55:14;3.50;;;0.73;;
23768;SDS011;12064;50.890;5.424;2023-04-01T08:13:27;2.55;;;0.60;;
23768;SDS011;12064;50.890;5.424;2023-04-01T08:22:40;2.13;;;0.60;;
23768;SDS011;12064;50.890;5.424;2023-04-01T08:40:57;1.45;;;0.73;;
23768;SDS011;12064;50.890;5.424;2023-04-01T09:08:12;2.25;;;0.60;;
23768;SDS011;12064;50.890;5.424;2023-04-01T09:26:26;0.90;;;0.40;;
23768;SDS011;12064;50.890;5.424;2023-04-01T09:35:46;2.78;;;0.75;;
23768;SDS011;12064;50.890;5.424;2023-04-01T09:44:48;1.67;;;0.65;;
23768;SDS011;12064;50.890;5.424;2023-04-01T10:02:58;1.00;;;0.70;;
23768;SDS011;12064;50.890;5.424;2023-04-01T10:39:52;8.70;;;2.15;;
23768;SDS011;12064;50.890;5.424;2023-04-01T10:49:00;11.02;;;3.33;;
23768;SDS011;12064;50.890;5.424;2023-04-01T10:58:13;16.15;;;4.18;;
23768;SDS011;12064;50.890;5.424;2023-04-01T12:20:38;16.83;;;4.50;;
23768;SDS011;12064;50.890;5.424;2023-04-01T13:33:36;16.73;;;4.93;;
23768;SDS011;12064;50.890;5.424;2023-04-01T13:42:49;14.43;;;4.85;;
23768;SDS011;12064;50.890;5.424;2023-04-01T14:01:27;11.15;;;4.22;;
23768;SDS011;12064;50.890;5.424;2023-04-01T14:10:43;12.45;;;4.43;;
23768;SDS011;12064;50.890;5.424;2023-04-01T14:38:22;12.00;;;4.20;;
23768;SDS011;12064;50.890;5.424;2023-04-01T14:56:46;15.20;;;4.43;;
23768;SDS011;12064;50.890;5.424;2023-04-01T15:42:17;9.48;;;3.95;;
23768;SDS011;12064;50.890;5.424;2023-04-01T15:51:22;8.82;;;3.30;;
23768;SDS011;12064;50.890;5.424;2023-04-01T16:10:22;10.13;;;3.83;;
23768;SDS011;12064;50.890;5.424;2023-04-01T16:19:30;10.88;;;3.78;;
23768;SDS011;12064;50.890;5.424;2023-04-01T16:28:32;7.57;;;3.47;;
23768;SDS011;12064;50.890;5.424;2023-04-01T16:46:56;8.75;;;3.60;;
23768;SDS011;12064;50.890;5.424;2023-04-01T16:55:56;11.18;;;3.95;;
23768;SDS011;12064;50.890;5.424;2023-04-01T17:05:12;9.15;;;3.70;;
23768;SDS011;12064;50.890;5.424;2023-04-01T17:32:38;8.40;;;3.67;;
23768;SDS011;12064;50.890;5.424;2023-04-01T17:42:00;9.05;;;3.38;;
23768;SDS011;12064;50.890;5.424;2023-04-01T17:51:07;9.73;;;3.38;;
23768;SDS011;12064;50.890;5.424;2023-04-01T18:00:24;7.03;;;3.17;;
23768;SDS011;12064;50.890;5.424;2023-04-01T18:37:17;8.55;;;3.70;;
23768;SDS011;12064;50.890;5.424;2023-04-01T18:46:30;8.10;;;3.00;;
23768;SDS011;12064;50.890;5.424;2023-04-01T18:55:35;8.60;;;3.35;;
23768;SDS011;12064;50.890;5.424;2023-04-01T19:41:39;7.13;;;2.97;;
23768;SDS011;12064;50.890;5.424;2023-04-01T19:51:09;7.05;;;2.97;;
23768;SDS011;12064;50.890;5.424;2023-04-01T20:00:15;6.78;;;2.97;;
23768;SDS011;12064;50.890;5.424;2023-04-01T20:18:59;6.43;;;2.95;;
23768;SDS011;12064;50.890;5.424;2023-04-01T20:28:00;6.53;;;2.95;;
23768;SDS011;12064;50.890;5.424;2023-04-01T20:46:10;7.22;;;3.15;;
23768;SDS011;12064;50.890;5.424;2023-04-01T21:22:58;5.47;;;2.78;;
23768;SDS011;12064;50.890;5.424;2023-04-01T21:32:05;7.25;;;2.60;;
23768;SDS011;12064;50.890;5.424;2023-04-01T21:50:39;4.30;;;2.45;;
23768;SDS011;12064;50.890;5.424;2023-04-01T22:17:28;5.50;;;2.90;;
23768;SDS011;12064;50.890;5.424;2023-04-01T22:26:31;4.82;;;2.60;;
23768;SDS011;12064;50.890;5.424;2023-04-01T22:35:40;5.18;;;2.70;;
23768;SDS011;12064;50.890;5.424;2023-04-01T22:54:04;4.30;;;2.47;;
23768;SDS011;12064;50.890;5.424;2023-04-01T23:03:21;4.82;;;2.70;;
23768;SDS011;12064;50.890;5.424;2023-04-01T23:12:21;5.10;;;2.55;;
23768;SDS011;12064;50.890;5.424;2023-04-01T23:21:14;5.43;;;2.75;;
23768;SDS011;12064;50.890;5.424;2023-04-01T23:30:45;5.50;;;2.63;;
23768;SDS011;12064;50.890;5.424;2023-04-01T23:48:32;4.78;;;2.75;;
23768;SDS011;12064;50.890;5.424;2023-04-01T23:57:32;3.47;;;2.22;;
